Terminal Aerodrome Forecast
Issued by NWS Tallahassee, FL

Home | Current Version | Previous Version | Text Only | Print | Product List | Glossary On
Versions: 1 2 3 4 5 6 7 8 9 10 11 12
554
FTUS42 KTAE 301720
TAFTLH
TAF
KTLH 301720Z 3018/3118 34008KT P6SM SCT060
     FM301900 32007KT P6SM VCTS SCT060CB
     FM310000 25005KT P6SM SCT250=

USA.gov is the U.S. government's official web portal to all federal, state and local government web resources and services.